createdAt,value
2023-05-26T00:00:49.528Z,84.39
2023-05-26T00:03:18.263Z,84.55
2023-05-26T00:05:46.163Z,85.02
2023-05-26T00:08:13.210Z,85.84
2023-05-26T00:10:40.046Z,85.81
2023-05-26T00:13:06.874Z,85.33
2023-05-26T00:15:33.480Z,85.45
2023-05-26T00:18:02.926Z,85.62
2023-05-26T00:20:30.391Z,85.90
2023-05-26T00:22:57.123Z,85.39
2023-05-26T00:25:23.972Z,85.69
2023-05-26T00:27:50.933Z,85.49
2023-05-26T00:30:17.925Z,85.20
2023-05-26T00:32:44.830Z,85.42
2023-05-26T00:35:14.595Z,85.63
2023-05-26T00:37:42.323Z,85.34
2023-05-26T00:40:09.465Z,85.44
2023-05-26T00:42:36.191Z,85.69
2023-05-26T00:45:02.961Z,85.56
2023-05-26T00:47:29.737Z,85.18
2023-05-26T00:49:56.612Z,85.35
2023-05-26T00:52:23.945Z,85.49
2023-05-26T00:54:50.912Z,85.15
2023-05-26T00:57:18.078Z,85.48
2023-05-26T00:59:45.149Z,85.11
2023-05-26T01:02:13.300Z,85.14
2023-05-26T01:04:41.597Z,85.11
2023-05-26T01:07:10.552Z,85.31
2023-05-26T01:09:37.347Z,85.16
2023-05-26T01:12:12.478Z,85.25
2023-05-26T01:14:55.753Z,85.42
2023-05-26T01:17:31.645Z,86.11
2023-05-26T01:20:01.234Z,85.51
2023-05-26T01:22:52.346Z,85.53
2023-05-26T01:25:46.052Z,85.85
2023-05-26T01:28:19.565Z,85.86
2023-05-26T01:30:48.259Z,85.92
2023-05-26T01:33:15.482Z,86.17
2023-05-26T01:35:42.627Z,85.82
2023-05-26T01:38:09.526Z,86.16
2023-05-26T01:40:38.920Z,85.93
2023-05-26T01:43:12.687Z,86.18
2023-05-26T01:45:49.961Z,86.31
2023-05-26T01:48:19.318Z,86.40
2023-05-26T01:50:52.071Z,86.82
2023-05-26T01:53:22.239Z,86.64
2023-05-26T01:55:53.055Z,86.26
2023-05-26T01:58:21.223Z,86.49
2023-05-26T02:00:48.756Z,86.28
2023-05-26T02:03:16.982Z,86.46
2023-05-26T02:05:44.179Z,86.31
2023-05-26T02:08:12.156Z,85.80
2023-05-26T02:10:40.974Z,85.50
2023-05-26T02:13:07.863Z,85.78
2023-05-26T02:15:34.737Z,85.55
2023-05-26T02:18:01.741Z,85.56
2023-05-26T02:20:28.585Z,85.50
2023-05-26T02:22:55.363Z,86.11
2023-05-26T02:25:22.015Z,85.24
2023-05-26T02:27:48.658Z,85.64
2023-05-26T02:30:15.339Z,85.56
2023-05-26T02:32:42.986Z,85.38
2023-05-26T02:35:10.880Z,85.66
2023-05-26T02:37:37.645Z,85.96
2023-05-26T02:40:05.867Z,85.17
2023-05-26T02:42:32.562Z,84.78
2023-05-26T02:44:59.239Z,85.22
2023-05-26T02:47:26.014Z,84.89
2023-05-26T02:49:52.681Z,85.04
2023-05-26T02:52:19.302Z,84.90
2023-05-26T02:54:45.997Z,84.18
2023-05-26T02:57:12.839Z,84.69
2023-05-26T02:59:39.513Z,83.87
2023-05-26T03:02:06.271Z,84.40
2023-05-26T03:04:33.459Z,84.31
2023-05-26T03:07:00.404Z,84.17
2023-05-26T03:09:27.102Z,84.18
2023-05-26T03:11:53.709Z,83.91
2023-05-26T03:14:21.565Z,83.82
2023-05-26T03:16:48.337Z,83.31
2023-05-26T03:19:15.063Z,83.82
2023-05-26T03:21:48.533Z,83.66
2023-05-26T03:24:17.143Z,83.41
2023-05-26T03:26:43.747Z,83.16
2023-05-26T03:29:10.810Z,83.11
2023-05-26T03:31:38.023Z,83.39
2023-05-26T03:34:04.759Z,82.93
2023-05-26T03:36:31.410Z,82.92
2023-05-26T03:38:57.997Z,82.65
2023-05-26T03:41:24.813Z,82.86
2023-05-26T03:43:51.629Z,82.92
2023-05-26T03:46:18.341Z,82.38
2023-05-26T03:48:45.092Z,82.23
2023-05-26T03:51:15.005Z,81.82
2023-05-26T03:53:43.111Z,82.16
2023-05-26T03:56:12.620Z,82.04
2023-05-26T03:58:39.303Z,81.27
2023-05-26T04:01:06.147Z,81.26
2023-05-26T04:03:32.943Z,81.04
2023-05-26T04:06:01.239Z,80.55
2023-05-26T04:08:28.463Z,80.49
2023-05-26T04:10:56.201Z,80.02
2023-05-26T04:13:22.841Z,80.08
2023-05-26T04:15:49.558Z,79.62
2023-05-26T04:18:16.236Z,79.43
2023-05-26T04:20:44.435Z,79.55
2023-05-26T04:23:12.080Z,78.86
2023-05-26T04:25:38.809Z,78.81
2023-05-26T04:28:05.521Z,78.79
2023-05-26T04:30:32.266Z,78.08
2023-05-26T04:32:59.862Z,78.03
2023-05-26T04:35:26.565Z,77.81
2023-05-26T04:37:54.596Z,77.74
2023-05-26T04:40:21.264Z,77.51
2023-05-26T04:42:50.023Z,77.20
2023-05-26T04:45:16.929Z,77.26
2023-05-26T04:47:44.098Z,76.95
2023-05-26T04:50:13.815Z,76.59
2023-05-26T04:52:42.662Z,75.94
2023-05-26T04:55:10.743Z,75.89
2023-05-26T04:57:37.636Z,75.91
2023-05-26T05:00:11.724Z,75.35
2023-05-26T05:02:38.472Z,75.36
2023-05-26T05:05:07.494Z,74.17
2023-05-26T05:07:35.207Z,72.85
2023-05-26T05:10:01.889Z,72.66
2023-05-26T05:12:28.480Z,72.58
2023-05-26T05:14:56.214Z,72.52
2023-05-26T05:17:22.981Z,72.55
2023-05-26T05:19:54.223Z,72.29
2023-05-26T05:22:29.233Z,71.84
2023-05-26T05:24:56.158Z,71.70
2023-05-26T05:27:22.981Z,71.87
2023-05-26T05:29:49.685Z,71.06
2023-05-26T05:32:16.625Z,71.03
2023-05-26T05:34:44.274Z,70.30
2023-05-26T05:37:10.923Z,70.39
2023-05-26T05:39:37.714Z,70.29
2023-05-26T05:42:04.843Z,69.46
2023-05-26T05:44:31.530Z,68.91
2023-05-26T05:46:58.198Z,68.27
2023-05-26T05:49:27.027Z,67.36
2023-05-26T05:51:53.798Z,66.40
2023-05-26T05:54:20.558Z,65.90
2023-05-26T05:56:47.240Z,65.63
2023-05-26T05:59:13.930Z,65.46
2023-05-26T06:01:41.976Z,64.71
2023-05-26T06:04:08.810Z,64.31
2023-05-26T06:06:37.264Z,63.69
2023-05-26T06:09:04.902Z,62.16
2023-05-26T06:11:31.572Z,61.43
2023-05-26T06:13:58.177Z,60.81
2023-05-26T06:16:26.219Z,59.20
2023-05-26T06:18:53.009Z,58.43
2023-05-26T06:21:19.748Z,58.12
2023-05-26T06:23:46.576Z,58.42
2023-05-26T06:26:14.296Z,59.79
2023-05-26T06:28:41.487Z,59.73
2023-05-26T06:31:08.178Z,59.06
2023-05-26T06:33:34.882Z,59.27
2023-05-26T06:36:01.634Z,58.64
2023-05-26T06:38:28.427Z,58.31
2023-05-26T06:40:55.101Z,58.93
2023-05-26T06:43:21.806Z,59.04
2023-05-26T06:45:48.566Z,59.16
2023-05-26T06:48:15.239Z,57.75
2023-05-26T06:50:42.694Z,56.17
2023-05-26T06:53:09.496Z,55.42
2023-05-26T06:55:36.067Z,55.92
2023-05-26T06:58:02.720Z,54.22
2023-05-26T07:00:32.262Z,53.75
2023-05-26T07:02:59.068Z,54.27
2023-05-26T07:05:25.804Z,53.94
2023-05-26T07:07:52.555Z,54.39
2023-05-26T07:10:19.177Z,52.31
2023-05-26T07:12:45.830Z,52.21
2023-05-26T07:15:12.678Z,50.76
2023-05-26T07:17:39.509Z,50.00
2023-05-26T07:20:07.070Z,49.44
2023-05-26T07:22:33.768Z,48.25
2023-05-26T07:25:00.379Z,48.64
2023-05-26T07:27:27.420Z,49.65
2023-05-26T07:29:54.044Z,50.86
2023-05-26T07:32:20.919Z,51.01
2023-05-26T07:34:50.864Z,49.16
2023-05-26T07:37:18.100Z,49.29
2023-05-26T07:39:45.269Z,48.38
2023-05-26T07:42:12.339Z,48.00
2023-05-26T07:44:39.480Z,48.76
2023-05-26T07:47:06.924Z,48.28
2023-05-26T07:49:34.748Z,48.50
2023-05-26T07:52:01.784Z,49.72
2023-05-26T07:54:29.030Z,50.54
2023-05-26T07:56:56.184Z,50.33
2023-05-26T07:59:27.586Z,50.50
2023-05-26T08:01:56.084Z,49.62
2023-05-26T08:04:23.643Z,50.70
2023-05-26T08:06:50.911Z,50.40
2023-05-26T08:09:18.229Z,50.69
2023-05-26T08:11:45.055Z,50.62
2023-05-26T08:14:12.146Z,51.10
2023-05-26T08:16:39.002Z,51.35
2023-05-26T08:19:06.470Z,51.98
2023-05-26T08:21:36.152Z,52.17
2023-05-26T08:24:03.912Z,50.77
2023-05-26T08:26:30.747Z,51.79
2023-05-26T08:28:57.471Z,50.75
2023-05-26T08:31:24.079Z,50.11
2023-05-26T08:33:50.827Z,50.14
2023-05-26T08:36:17.494Z,50.28
2023-05-26T08:38:44.175Z,50.13
2023-05-26T08:41:14.953Z,49.42
2023-05-26T08:43:53.232Z,49.93
2023-05-26T08:46:21.294Z,50.08
2023-05-26T08:48:49.358Z,50.02
2023-05-26T08:51:16.130Z,49.75
2023-05-26T08:53:42.906Z,49.17
2023-05-26T08:56:10.710Z,49.09
2023-05-26T08:58:42.342Z,49.69
2023-05-26T09:01:09.553Z,50.54
2023-05-26T09:03:37.705Z,50.96
2023-05-26T09:06:04.541Z,50.62
2023-05-26T09:08:31.264Z,50.50
2023-05-26T09:10:57.925Z,50.56
2023-05-26T09:13:25.932Z,51.21
2023-05-26T09:16:02.748Z,51.03
2023-05-26T09:18:42.528Z,51.01
2023-05-26T09:21:09.248Z,52.02
2023-05-26T09:23:35.888Z,52.53
2023-05-26T09:26:07.437Z,53.72
2023-05-26T09:28:34.118Z,54.34
2023-05-26T09:31:00.839Z,54.92
2023-05-26T09:33:27.619Z,55.13
2023-05-26T09:35:55.305Z,54.83
2023-05-26T09:38:22.959Z,55.16
2023-05-26T09:40:50.663Z,55.08
2023-05-26T09:43:19.326Z,54.48
2023-05-26T09:45:46.090Z,55.35
2023-05-26T09:48:12.892Z,53.30
2023-05-26T09:50:40.926Z,52.81
2023-05-26T09:53:10.871Z,51.70
2023-05-26T09:55:40.303Z,51.18
2023-05-26T09:58:09.188Z,50.86
2023-05-26T10:00:42.555Z,50.54
2023-05-26T10:03:10.822Z,49.10
2023-05-26T10:05:40.320Z,48.48
2023-05-26T10:08:07.991Z,48.74
2023-05-26T10:10:35.684Z,49.34
2023-05-26T10:13:03.291Z,49.67
2023-05-26T10:15:30.142Z,48.16
2023-05-26T10:17:59.646Z,49.44
2023-05-26T10:20:27.253Z,48.11
2023-05-26T10:23:02.496Z,49.11
2023-05-26T10:25:53.462Z,49.70
2023-05-26T10:28:45.009Z,49.01
2023-05-26T10:31:12.457Z,51.22
2023-05-26T10:33:41.952Z,50.58
2023-05-26T10:36:18.934Z,50.14
2023-05-26T10:38:48.126Z,51.32
2023-05-26T10:41:36.354Z,51.14
2023-05-26T10:44:04.209Z,50.74
2023-05-26T10:46:47.334Z,52.11
2023-05-26T10:49:24.074Z,52.22
2023-05-26T10:51:53.657Z,52.46
2023-05-26T10:54:23.870Z,51.64
2023-05-26T10:56:53.841Z,51.11
2023-05-26T10:59:32.176Z,51.28
2023-05-26T11:02:04.852Z,50.71
2023-05-26T11:04:46.732Z,50.10
2023-05-26T11:07:19.824Z,49.68
2023-05-26T11:10:07.214Z,49.04
2023-05-26T11:12:48.762Z,51.53
2023-05-26T11:15:34.658Z,51.34
2023-05-26T11:18:03.705Z,50.06
2023-05-26T11:20:30.934Z,51.76
2023-05-26T11:22:57.885Z,49.81
2023-05-26T11:25:24.821Z,50.06
2023-05-26T11:27:52.955Z,49.35
2023-05-26T11:30:20.179Z,49.09
2023-05-26T11:33:00.787Z,49.24
2023-05-26T11:35:43.937Z,49.48
2023-05-26T11:41:00.395Z,48.92
2023-05-26T11:43:51.885Z,49.17
2023-05-26T11:46:43.276Z,48.53
2023-05-26T11:49:35.193Z,47.54
2023-05-26T11:52:24.722Z,47.18
2023-05-26T11:55:03.268Z,47.72
2023-05-26T11:57:50.086Z,46.92
2023-05-26T12:00:42.275Z,47.60
2023-05-26T12:03:26.062Z,48.11
2023-05-26T12:06:19.105Z,48.12
2023-05-26T12:09:20.015Z,47.22
2023-05-26T12:12:20.925Z,47.75
2023-05-26T12:14:54.921Z,48.11
2023-05-26T12:17:24.737Z,47.23
2023-05-26T12:20:03.136Z,47.80
2023-05-26T12:22:52.810Z,48.17
2023-05-26T12:26:04.514Z,47.22
2023-05-26T12:28:34.914Z,47.67
2023-05-26T12:31:06.517Z,47.08
2023-05-26T12:33:48.610Z,46.38
2023-05-26T12:36:18.547Z,45.06
2023-05-26T12:38:52.386Z,45.53
2023-05-26T12:41:28.788Z,45.48
2023-05-26T12:44:03.801Z,45.37
2023-05-26T12:46:35.489Z,45.63
2023-05-26T12:49:06.664Z,44.56
2023-05-26T12:51:54.465Z,45.59
2023-05-26T12:54:28.042Z,44.74
2023-05-26T12:57:10.524Z,44.06
2023-05-26T13:02:27.022Z,44.54
2023-05-26T13:05:03.677Z,44.02
2023-05-26T13:07:58.697Z,44.47
2023-05-26T13:11:29.432Z,43.63
2023-05-26T13:13:36.119Z,43.03
2023-05-26T13:16:20.804Z,44.05
2023-05-26T13:19:08.477Z,43.15
2023-05-26T13:21:46.486Z,42.47
2023-05-26T13:24:35.106Z,41.23
2023-05-26T13:27:22.470Z,41.43
2023-05-26T13:29:57.129Z,41.55
2023-05-26T13:32:26.747Z,41.58
2023-05-26T13:35:15.518Z,41.72
2023-05-26T13:37:48.661Z,41.56
2023-05-26T13:40:24.686Z,41.23
2023-05-26T13:45:48.827Z,41.19
2023-05-26T13:48:26.254Z,41.34
2023-05-26T13:51:00.527Z,42.05
2023-05-26T13:53:38.847Z,42.04
2023-05-26T13:56:27.035Z,41.98
2023-05-26T13:59:15.146Z,41.40
2023-05-26T14:02:08.874Z,42.47
2023-05-26T14:05:00.249Z,42.62
2023-05-26T14:07:30.936Z,43.57
2023-05-26T14:10:09.165Z,43.27
2023-05-26T14:12:42.869Z,43.83
2023-05-26T14:15:12.937Z,43.19
2023-05-26T14:21:37.774Z,42.09
2023-05-26T14:23:24.369Z,42.04
2023-05-26T14:25:54.817Z,42.34
2023-05-26T14:28:29.770Z,42.35
2023-05-26T14:31:04.184Z,41.99
2023-05-26T14:34:03.832Z,40.83
2023-05-26T14:36:35.338Z,40.74
2023-05-26T14:39:17.581Z,41.57
2023-05-26T14:41:47.456Z,41.03
2023-05-26T14:44:15.163Z,41.42
2023-05-26T14:46:46.993Z,41.46
2023-05-26T14:49:32.958Z,41.40
2023-05-26T14:52:02.959Z,41.95
2023-05-26T14:54:33.479Z,42.47
2023-05-26T14:57:27.394Z,41.87
2023-05-26T15:00:00.254Z,42.62
2023-05-26T15:02:32.848Z,42.25
2023-05-26T15:05:04.920Z,42.62
2023-05-26T15:07:32.351Z,42.33
2023-05-26T15:10:04.255Z,42.46
2023-05-26T15:13:03.439Z,41.55
2023-05-26T15:15:56.688Z,42.70
2023-05-26T15:18:24.066Z,42.25
2023-05-26T15:21:16.797Z,43.06
2023-05-26T15:23:56.790Z,42.71
2023-05-26T15:26:34.268Z,42.82
2023-05-26T15:29:08.812Z,43.70
2023-05-26T15:31:43.544Z,43.77
2023-05-26T15:34:15.248Z,43.14
2023-05-26T15:36:54.354Z,43.58
2023-05-26T15:42:28.210Z,44.37
2023-05-26T15:45:05.542Z,45.00
2023-05-26T15:47:41.183Z,44.81
2023-05-26T15:50:16.476Z,44.75
2023-05-26T15:52:47.887Z,44.48
2023-05-26T15:55:18.056Z,44.73
2023-05-26T15:57:48.709Z,44.86
2023-05-26T16:00:20.258Z,44.67
2023-05-26T16:02:50.488Z,44.91
2023-05-26T16:05:20.593Z,45.13
2023-05-26T16:07:55.177Z,45.02
2023-05-26T16:10:31.378Z,45.36
2023-05-26T16:13:08.842Z,45.42
2023-05-26T16:15:54.138Z,45.88
2023-05-26T16:18:24.545Z,45.84
2023-05-26T16:20:51.989Z,45.86
2023-05-26T16:23:29.676Z,45.32
2023-05-26T16:26:02.028Z,45.24
2023-05-26T16:28:34.250Z,45.33
2023-05-26T16:31:04.841Z,44.86
2023-05-26T16:33:36.205Z,45.35
2023-05-26T16:36:21.479Z,45.37
2023-05-26T16:39:03.436Z,45.53
2023-05-26T16:41:35.553Z,45.76
2023-05-26T16:44:08.014Z,45.77
2023-05-26T16:46:58.542Z,45.81
2023-05-26T16:49:26.867Z,45.70
2023-05-26T16:52:00.333Z,46.25
2023-05-26T16:54:39.181Z,46.39
2023-05-26T16:57:12.342Z,46.59
2023-05-26T16:59:56.098Z,46.97
2023-05-26T17:02:35.826Z,47.00
2023-05-26T17:05:11.757Z,46.81
2023-05-26T17:07:51.084Z,47.01
2023-05-26T17:10:24.172Z,47.21
2023-05-26T17:13:00.215Z,46.99
2023-05-26T17:15:30.738Z,47.53
2023-05-26T17:18:12.895Z,47.74
2023-05-26T17:20:43.265Z,48.27
2023-05-26T17:23:16.864Z,48.66
2023-05-26T17:25:57.738Z,48.80
2023-05-26T17:28:28.037Z,48.85
2023-05-26T17:31:00.364Z,49.05
2023-05-26T17:33:29.144Z,49.26
2023-05-26T17:35:58.820Z,49.79
2023-05-26T17:38:27.191Z,49.71
2023-05-26T17:40:54.357Z,50.48
2023-05-26T17:43:28.045Z,50.39
2023-05-26T17:46:02.738Z,51.04
2023-05-26T17:48:35.256Z,51.28
2023-05-26T17:51:04.884Z,51.69
2023-05-26T17:53:46.630Z,51.75
2023-05-26T17:56:18.559Z,52.07
2023-05-26T17:58:54.875Z,52.46
2023-05-26T18:01:22.613Z,52.83
2023-05-26T18:03:52.743Z,53.22
2023-05-26T18:06:19.989Z,53.74
2023-05-26T18:08:47.313Z,54.41
2023-05-26T18:11:14.557Z,54.88
2023-05-26T18:13:44.894Z,55.41
2023-05-26T18:16:17.610Z,56.26
2023-05-26T18:18:50.043Z,56.72
2023-05-26T18:21:30.825Z,56.98
2023-05-26T18:23:59.977Z,57.30
2023-05-26T18:26:31.177Z,57.89
2023-05-26T18:28:59.867Z,57.94
2023-05-26T18:31:30.951Z,58.10
2023-05-26T18:34:06.747Z,58.42
2023-05-26T18:36:45.846Z,58.92
2023-05-26T18:39:15.750Z,59.33
2023-05-26T18:41:46.273Z,59.37
2023-05-26T18:44:20.414Z,59.79
2023-05-26T18:46:49.905Z,60.62
2023-05-26T18:49:22.759Z,60.90
2023-05-26T18:51:49.867Z,61.14
2023-05-26T18:54:17.678Z,61.76
2023-05-26T18:56:45.148Z,61.89
2023-05-26T18:59:16.143Z,62.20
2023-05-26T19:01:43.771Z,62.25
2023-05-26T19:04:18.771Z,63.12
2023-05-26T19:06:45.853Z,63.95
2023-05-26T19:09:13.867Z,64.04
2023-05-26T19:11:48.676Z,64.35
2023-05-26T19:14:15.904Z,64.75
2023-05-26T19:16:51.999Z,65.51
2023-05-26T19:19:23.462Z,65.86
2023-05-26T19:21:51.272Z,66.32
2023-05-26T19:24:19.111Z,66.71
2023-05-26T19:26:47.929Z,67.38
2023-05-26T19:29:18.029Z,67.62
2023-05-26T19:31:50.506Z,67.66
2023-05-26T19:34:17.699Z,67.43
2023-05-26T19:36:49.481Z,67.70
2023-05-26T19:39:16.503Z,67.48
2023-05-26T19:41:47.947Z,68.55
2023-05-26T19:44:17.851Z,70.06
2023-05-26T19:46:45.179Z,70.69
2023-05-26T19:49:14.601Z,70.18
2023-05-26T19:51:44.266Z,71.14
2023-05-26T19:54:13.257Z,71.37
2023-05-26T19:56:40.899Z,70.88
2023-05-26T19:59:08.962Z,70.48
2023-05-26T20:01:35.766Z,70.44
2023-05-26T20:04:02.534Z,70.87
2023-05-26T20:06:30.539Z,70.93
2023-05-26T20:08:57.258Z,71.23
2023-05-26T20:11:24.049Z,71.44
2023-05-26T20:13:51.315Z,73.51
2023-05-26T20:16:18.031Z,72.68
2023-05-26T20:18:45.050Z,72.81
2023-05-26T20:21:12.154Z,73.10
2023-05-26T20:23:39.232Z,73.94
2023-05-26T20:26:06.523Z,73.59
2023-05-26T20:28:33.576Z,75.13
2023-05-26T20:31:01.859Z,75.08
2023-05-26T20:33:28.682Z,74.92
2023-05-26T20:35:55.719Z,74.55
2023-05-26T20:38:22.539Z,74.23
2023-05-26T20:40:49.291Z,74.53
2023-05-26T20:43:16.064Z,74.66
2023-05-26T20:45:42.802Z,75.41
2023-05-26T20:48:09.602Z,75.51
2023-05-26T20:50:36.846Z,75.96
2023-05-26T20:53:03.583Z,75.51
2023-05-26T20:55:33.172Z,75.03
2023-05-26T20:57:59.815Z,75.68
2023-05-26T21:00:27.338Z,75.79
2023-05-26T21:02:54.167Z,76.23
2023-05-26T21:05:21.133Z,76.46
2023-05-26T21:07:48.024Z,76.66
2023-05-26T21:10:14.771Z,76.08
2023-05-26T21:12:41.772Z,77.53
2023-05-26T21:15:09.188Z,77.54
2023-05-26T21:17:35.940Z,77.09
2023-05-26T21:20:03.817Z,78.19
2023-05-26T21:22:31.647Z,78.44
2023-05-26T21:24:58.362Z,77.65
2023-05-26T21:27:25.017Z,78.47
2023-05-26T21:29:51.725Z,77.68
2023-05-26T21:32:18.466Z,78.27
2023-05-26T21:34:45.093Z,77.97
2023-05-26T21:37:14.957Z,78.59
2023-05-26T21:39:44.809Z,78.45
2023-05-26T21:42:12.012Z,78.54
2023-05-26T21:44:38.673Z,78.44
2023-05-26T21:47:05.571Z,79.81
2023-05-26T21:49:32.236Z,80.82
2023-05-26T21:51:58.943Z,80.66
2023-05-26T21:54:25.900Z,80.02
2023-05-26T21:56:52.588Z,79.87
2023-05-26T21:59:19.330Z,81.22
2023-05-26T22:01:46.071Z,81.06
2023-05-26T22:04:12.780Z,80.75
2023-05-26T22:06:39.450Z,79.75
2023-05-26T22:09:06.533Z,80.75
2023-05-26T22:11:33.182Z,80.78
2023-05-26T22:14:01.042Z,80.75
2023-05-26T22:16:29.444Z,80.39
2023-05-26T22:18:56.314Z,81.20
2023-05-26T22:21:22.923Z,80.82
2023-05-26T22:23:49.719Z,80.90
2023-05-26T22:26:16.461Z,80.79
2023-05-26T22:28:43.160Z,81.03
2023-05-26T22:31:09.778Z,81.49
2023-05-26T22:33:36.564Z,81.99
2023-05-26T22:36:03.344Z,81.14
2023-05-26T22:38:30.096Z,81.19
2023-05-26T22:40:56.951Z,82.06
2023-05-26T22:43:23.649Z,82.36
2023-05-26T22:45:50.547Z,82.36
2023-05-26T22:48:17.404Z,81.84
2023-05-26T22:50:44.132Z,82.12
2023-05-26T22:53:11.090Z,83.62
2023-05-26T22:55:46.946Z,83.36
2023-05-26T22:58:15.953Z,82.97
2023-05-26T23:00:42.749Z,82.63
2023-05-26T23:03:09.637Z,83.36
2023-05-26T23:05:36.684Z,83.85
2023-05-26T23:08:03.356Z,83.33
2023-05-26T23:10:30.004Z,83.12
2023-05-26T23:12:56.657Z,82.97
2023-05-26T23:15:23.433Z,83.44
2023-05-26T23:17:51.723Z,83.27
2023-05-26T23:20:19.023Z,83.26
2023-05-26T23:22:45.675Z,84.30
2023-05-26T23:25:15.855Z,84.26
2023-05-26T23:27:42.553Z,83.44
2023-05-26T23:30:09.800Z,83.65
2023-05-26T23:32:37.038Z,84.28
2023-05-26T23:35:04.032Z,84.56
2023-05-26T23:37:31.227Z,84.18
2023-05-26T23:39:58.104Z,84.18
2023-05-26T23:42:24.863Z,84.10
2023-05-26T23:44:52.523Z,83.83
2023-05-26T23:47:19.343Z,84.38
2023-05-26T23:49:46.081Z,84.53
2023-05-26T23:52:12.817Z,84.22
2023-05-26T23:54:39.526Z,84.39
2023-05-26T23:57:06.985Z,85.20
2023-05-26T23:59:33.697Z,84.71
